Portada
METAR-TAF:

METAR-TAF

Aeropuertos :

Dyersburg, Tennessee, Estados Unidos

latitud: 36-00N, longitud: 089-24W, altitud: 103 m

Observación

El informe se hizo hace 43 minutos, a las 23:56 UTC
Viento 11 kt del norte-noreste
Temperatura 6°C
Humedad 87%
Presión 1024 hPa
Visibilidad: 16.1 km
Cielo cubierto a una altura de 7500 ft

METAR: KDYR 182356Z AUTO 03011KT 10SM OVC075 06/04 A3025 RMK AO2 SLP248 6//// T00560039 10089 20056 51017 PNO $

Hora: 18:39 (00:39 UTC)


TAF: falta

Observaciones y pronósticos meteorológicos de más de 4000 aeropuertos (mensajes METAR y TAF).

Los puntos amarillos y rojos representan las estaciones disponibles.

Ponga el ratón en el punto deseado para ver el nombre de la estación.

Haga clic para ver las observaciones y los pronósticos meteorológicos.

Para cambiar el mapa : haga clic en los botones verdes con una cruz de color negro para hacer un zoom, en el botón verde con un guión para alejar o en las flechas verdes para mapas adyacentes.


METAR-TAF: